Terminal Aerodrome Forecast
Issued by NWS Twin Cities, MN

Home | Current Version | Previous Version | Text Only | Print | Product List | Glossary On
Versions: 1 2 3 4 5 6 7 8 9 10 11 12 13 14 15 16 17
000
FTUS43 KMPX 251700
TAFSTC
TAF
KSTC 251720Z 2518/2618 21010KT P6SM BKN018 BKN040
     FM252000 20008KT P6SM SCT025 BKN040
     FM260200 27003KT P6SM SCT050
     FM260600 VRB02KT 6SM BR FEW050
     FM261400 23007KT P6SM SCT120=

USA.gov is the U.S. government's official web portal to all federal, state and local government web resources and services.